Aérodrome :
LOGIN :

S'inscrire | Disclaimer

   EN    FR    IT 

 










Légende :    VFR   VFR Marginal   IFR   IFR Intensif   IFR Très Intensif
Visi : 
Plafond : 
>= 8 km
>= 3000ft
5 à 8 km
1000 à 3000 ft
1500m à 5 km
500 à 1000 ft
800 à 1500m
200 à 500 ft
< 800m
< 200 ft
Symboles :   Orages  Brouillard  Fortes neiges  Fortes précipitations  Vent > 20 kt
SIGMETs :   Divers  Orages  Givrage  Turbulence  Onde Orograph.  Cendres Volcan.






- Altitude de l'aérodrome : 939 ft


LKKB - Kbely Air Base

DERNIER METAR :
  • 160700Z 06003KT 9999 FEW040 BKN090 06/04 Q1013 NOSIG

METARs EXPIRÉS :
  • 160600Z 15005KT 9999 -SHRA SCT040 OVC070 07/04 Q1013 NOSIG
  • 160500Z 22003KT CAVOK 06/03 Q1013 NOSIG

TAF COR TAF LKKB
Valide du 16 à 06h jusqu'au 17 à 06h UTC


160500Z 1606/1706 21006KT CAVOK
TEMPO 1606/1610 8000 RA BKN025
BECMG 1608/1610 15008KT
BECMG 1618/1620 10004KT BKN015
TEMPO 1623/1706 VRB02KT 5000 BR OVC009



MET'MAP, la Météo Aéronautique d'un coup d'oeil ! - Copyright ORBIFLY Décembre 2007 - Disclaimer

ORBIFLY MET'MAP TEAM :

Programmation & Développement : Alexandra Zaïnal
Sur une idée originale de : Baudouin d'Aumeries
Assistance à la programmation : Marc-Olivier Méhu
Soutien technique & logistique : Manuel Goepfert

Contact : metmap@orbifly.com




SOURCES & CREDITS :

   NOAA